sensor_id;sensor_type;location;lat;lon;timestamp;noise_LAeq;noise_LA_min;noise_LA_max;noise_LA01;noise_LA95
72686;Laerm;61365;52.162;4.500;2023-06-26T00:00:01;40.18;33.64;44.27;;
72686;Laerm;61365;52.162;4.500;2023-06-26T00:02:28;40.21;33.21;45.64;;
72686;Laerm;61365;52.162;4.500;2023-06-26T00:04:58;40.26;33.61;43.76;;
72686;Laerm;61365;52.162;4.500;2023-06-26T00:07:31;40.30;33.21;47.42;;
72686;Laerm;61365;52.162;4.500;2023-06-26T00:10:00;40.28;33.28;45.17;;
72686;Laerm;61365;52.162;4.500;2023-06-26T00:12:28;40.24;32.97;43.77;;
72686;Laerm;61365;52.162;4.500;2023-06-26T00:14:55;40.23;32.90;45.40;;
72686;Laerm;61365;52.162;4.500;2023-06-26T00:17:22;40.18;33.20;43.15;;
72686;Laerm;61365;52.162;4.500;2023-06-26T00:19:48;40.24;32.80;44.64;;
72686;Laerm;61365;52.162;4.500;2023-06-26T00:22:14;40.25;33.77;44.31;;
72686;Laerm;61365;52.162;4.500;2023-06-26T00:24:41;40.29;33.82;43.28;;
72686;Laerm;61365;52.162;4.500;2023-06-26T00:27:07;40.28;33.17;43.97;;
72686;Laerm;61365;52.162;4.500;2023-06-26T00:29:33;40.34;33.67;44.16;;
72686;Laerm;61365;52.162;4.500;2023-06-26T00:31:59;40.31;33.74;43.63;;
72686;Laerm;61365;52.162;4.500;2023-06-26T00:34:25;40.35;33.69;55.11;;
72686;Laerm;61365;52.162;4.500;2023-06-26T00:36:51;40.23;33.74;43.81;;
72686;Laerm;61365;52.162;4.500;2023-06-26T00:39:17;40.24;33.15;47.35;;
72686;Laerm;61365;52.162;4.500;2023-06-26T00:41:44;40.09;33.67;44.51;;
72686;Laerm;61365;52.162;4.500;2023-06-26T00:44:10;40.10;33.67;43.82;;
72686;Laerm;61365;52.162;4.500;2023-06-26T00:46:36;40.10;33.87;43.32;;
72686;Laerm;61365;52.162;4.500;2023-06-26T00:49:03;40.09;33.69;44.68;;
72686;Laerm;61365;52.162;4.500;2023-06-26T00:51:30;39.99;33.34;44.23;;
72686;Laerm;61365;52.162;4.500;2023-06-26T00:53:57;40.00;33.48;43.02;;
72686;Laerm;61365;52.162;4.500;2023-06-26T00:56:23;40.02;33.29;43.93;;
72686;Laerm;61365;52.162;4.500;2023-06-26T00:58:50;40.09;33.58;44.69;;
72686;Laerm;61365;52.162;4.500;2023-06-26T01:01:16;40.30;33.93;44.50;;
72686;Laerm;61365;52.162;4.500;2023-06-26T01:03:44;40.29;33.75;44.48;;
72686;Laerm;61365;52.162;4.500;2023-06-26T01:06:13;40.28;34.48;43.86;;
72686;Laerm;61365;52.162;4.500;2023-06-26T01:08:41;40.22;32.99;43.26;;
72686;Laerm;61365;52.162;4.500;2023-06-26T01:11:08;40.28;33.61;45.98;;
72686;Laerm;61365;52.162;4.500;2023-06-26T01:13:34;40.30;33.47;43.33;;
72686;Laerm;61365;52.162;4.500;2023-06-26T01:16:01;40.28;33.19;43.39;;
72686;Laerm;61365;52.162;4.500;2023-06-26T01:18:29;40.27;34.25;46.95;;
72686;Laerm;61365;52.162;4.500;2023-06-26T01:20:55;40.30;33.95;44.56;;
72686;Laerm;61365;52.162;4.500;2023-06-26T01:23:42;40.27;33.43;44.42;;
72686;Laerm;61365;52.162;4.500;2023-06-26T01:26:20;40.25;33.42;43.59;;
72686;Laerm;61365;52.162;4.500;2023-06-26T01:28:49;40.28;34.11;43.72;;
72686;Laerm;61365;52.162;4.500;2023-06-26T01:31:17;40.25;34.04;44.08;;
72686;Laerm;61365;52.162;4.500;2023-06-26T01:33:44;40.26;34.77;45.70;;
72686;Laerm;61365;52.162;4.500;2023-06-26T01:36:11;40.26;33.62;43.91;;
72686;Laerm;61365;52.162;4.500;2023-06-26T01:38:37;40.26;34.11;45.22;;
72686;Laerm;61365;52.162;4.500;2023-06-26T01:41:06;40.19;33.28;43.28;;
72686;Laerm;61365;52.162;4.500;2023-06-26T01:43:43;40.23;33.69;44.80;;
72686;Laerm;61365;52.162;4.500;2023-06-26T01:46:23;40.22;33.16;44.73;;
72686;Laerm;61365;52.162;4.500;2023-06-26T01:49:12;40.32;34.23;47.98;;
72686;Laerm;61365;52.162;4.500;2023-06-26T01:51:46;40.37;34.51;46.23;;
72686;Laerm;61365;52.162;4.500;2023-06-26T01:54:18;40.41;34.10;44.00;;
72686;Laerm;61365;52.162;4.500;2023-06-26T01:56:48;40.41;34.37;43.61;;
72686;Laerm;61365;52.162;4.500;2023-06-26T01:59:17;40.37;34.84;43.01;;
72686;Laerm;61365;52.162;4.500;2023-06-26T02:01:44;40.36;34.44;44.93;;
72686;Laerm;61365;52.162;4.500;2023-06-26T02:04:10;40.33;33.32;44.71;;
72686;Laerm;61365;52.162;4.500;2023-06-26T02:06:37;40.42;33.85;45.16;;
72686;Laerm;61365;52.162;4.500;2023-06-26T02:09:03;40.30;33.83;43.75;;
72686;Laerm;61365;52.162;4.500;2023-06-26T02:11:29;40.23;34.10;44.11;;
72686;Laerm;61365;52.162;4.500;2023-06-26T02:13:55;40.27;34.06;47.82;;
72686;Laerm;61365;52.162;4.500;2023-06-26T02:16:21;40.30;34.37;44.19;;
72686;Laerm;61365;52.162;4.500;2023-06-26T02:18:49;40.31;34.44;47.08;;
72686;Laerm;61365;52.162;4.500;2023-06-26T02:21:15;40.27;34.40;44.15;;
72686;Laerm;61365;52.162;4.500;2023-06-26T02:23:41;40.32;34.60;45.20;;
72686;Laerm;61365;52.162;4.500;2023-06-26T02:26:07;40.30;33.43;44.12;;
72686;Laerm;61365;52.162;4.500;2023-06-26T02:28:33;40.27;33.23;43.86;;
72686;Laerm;61365;52.162;4.500;2023-06-26T02:31:00;40.25;33.95;43.51;;
72686;Laerm;61365;52.162;4.500;2023-06-26T02:33:26;40.28;33.81;43.60;;
72686;Laerm;61365;52.162;4.500;2023-06-26T02:35:52;40.27;33.89;44.00;;
72686;Laerm;61365;52.162;4.500;2023-06-26T02:38:18;40.26;33.65;46.85;;
72686;Laerm;61365;52.162;4.500;2023-06-26T02:40:44;40.26;33.63;44.12;;
72686;Laerm;61365;52.162;4.500;2023-06-26T02:43:11;40.35;34.00;45.47;;
72686;Laerm;61365;52.162;4.500;2023-06-26T02:45:37;40.24;32.94;44.50;;
72686;Laerm;61365;52.162;4.500;2023-06-26T02:48:03;40.39;33.04;45.21;;
72686;Laerm;61365;52.162;4.500;2023-06-26T02:50:29;40.49;33.78;45.11;;
72686;Laerm;61365;52.162;4.500;2023-06-26T02:52:55;40.47;33.27;43.87;;
72686;Laerm;61365;52.162;4.500;2023-06-26T02:55:21;40.51;33.67;46.79;;
72686;Laerm;61365;52.162;4.500;2023-06-26T02:57:47;40.41;33.20;45.18;;
72686;Laerm;61365;52.162;4.500;2023-06-26T03:00:14;40.43;33.93;43.64;;
72686;Laerm;61365;52.162;4.500;2023-06-26T03:02:41;40.42;34.21;45.25;;
72686;Laerm;61365;52.162;4.500;2023-06-26T03:05:07;40.42;34.64;52.02;;
72686;Laerm;61365;52.162;4.500;2023-06-26T03:07:34;40.47;33.53;53.46;;
72686;Laerm;61365;52.162;4.500;2023-06-26T03:10:00;40.44;33.24;45.36;;
72686;Laerm;61365;52.162;4.500;2023-06-26T03:12:26;40.40;34.06;44.36;;
72686;Laerm;61365;52.162;4.500;2023-06-26T03:14:52;40.38;33.98;44.68;;
72686;Laerm;61365;52.162;4.500;2023-06-26T03:17:18;40.39;34.13;46.74;;
72686;Laerm;61365;52.162;4.500;2023-06-26T03:19:44;40.36;33.23;43.60;;
72686;Laerm;61365;52.162;4.500;2023-06-26T03:22:10;40.35;33.39;44.44;;
72686;Laerm;61365;52.162;4.500;2023-06-26T03:24:37;40.37;33.93;43.31;;
72686;Laerm;61365;52.162;4.500;2023-06-26T03:27:03;40.37;33.54;43.79;;
72686;Laerm;61365;52.162;4.500;2023-06-26T03:29:29;40.35;33.41;44.80;;
72686;Laerm;61365;52.162;4.500;2023-06-26T03:31:55;40.31;33.45;46.14;;
72686;Laerm;61365;52.162;4.500;2023-06-26T03:34:22;40.37;33.82;44.17;;
72686;Laerm;61365;52.162;4.500;2023-06-26T03:36:48;40.38;33.92;45.06;;
72686;Laerm;61365;52.162;4.500;2023-06-26T03:39:14;40.41;33.64;44.03;;
72686;Laerm;61365;52.162;4.500;2023-06-26T03:41:40;40.40;32.91;44.32;;
72686;Laerm;61365;52.162;4.500;2023-06-26T03:44:06;40.41;33.54;44.91;;
72686;Laerm;61365;52.162;4.500;2023-06-26T03:46:32;40.44;33.37;44.23;;
72686;Laerm;61365;52.162;4.500;2023-06-26T03:48:58;40.39;33.75;44.35;;
72686;Laerm;61365;52.162;4.500;2023-06-26T03:51:24;40.45;33.90;44.77;;
72686;Laerm;61365;52.162;4.500;2023-06-26T03:53:50;40.39;33.27;44.05;;
72686;Laerm;61365;52.162;4.500;2023-06-26T03:56:16;40.44;33.40;45.97;;
72686;Laerm;61365;52.162;4.500;2023-06-26T03:58:43;40.39;33.47;46.40;;
72686;Laerm;61365;52.162;4.500;2023-06-26T04:01:09;40.39;33.11;43.41;;
72686;Laerm;61365;52.162;4.500;2023-06-26T04:03:35;40.40;33.67;44.35;;
72686;Laerm;61365;52.162;4.500;2023-06-26T04:06:01;40.44;35.02;44.58;;
72686;Laerm;61365;52.162;4.500;2023-06-26T04:08:27;40.40;34.41;44.33;;
72686;Laerm;61365;52.162;4.500;2023-06-26T04:10:53;40.47;33.48;44.44;;
72686;Laerm;61365;52.162;4.500;2023-06-26T04:13:21;40.51;34.16;44.19;;
72686;Laerm;61365;52.162;4.500;2023-06-26T04:15:47;40.47;33.61;48.24;;
72686;Laerm;61365;52.162;4.500;2023-06-26T04:18:13;40.45;33.37;43.55;;
72686;Laerm;61365;52.162;4.500;2023-06-26T04:20:42;40.45;34.55;43.39;;
72686;Laerm;61365;52.162;4.500;2023-06-26T04:23:26;40.36;33.97;46.06;;
72686;Laerm;61365;52.162;4.500;2023-06-26T04:25:53;40.23;32.65;44.15;;
72686;Laerm;61365;52.162;4.500;2023-06-26T04:28:19;40.24;32.83;43.59;;
72686;Laerm;61365;52.162;4.500;2023-06-26T04:30:45;40.31;34.03;43.89;;
72686;Laerm;61365;52.162;4.500;2023-06-26T04:33:11;40.31;32.87;44.26;;
72686;Laerm;61365;52.162;4.500;2023-06-26T04:35:37;40.18;33.81;46.12;;
72686;Laerm;61365;52.162;4.500;2023-06-26T04:38:03;40.08;34.46;44.68;;
72686;Laerm;61365;52.162;4.500;2023-06-26T04:40:30;40.14;33.24;43.61;;
72686;Laerm;61365;52.162;4.500;2023-06-26T04:42:57;40.29;33.57;44.63;;
72686;Laerm;61365;52.162;4.500;2023-06-26T04:45:23;40.13;33.15;43.06;;
72686;Laerm;61365;52.162;4.500;2023-06-26T04:47:49;40.27;33.62;42.72;;
72686;Laerm;61365;52.162;4.500;2023-06-26T04:50:15;40.23;33.59;44.32;;
72686;Laerm;61365;52.162;4.500;2023-06-26T04:52:44;40.10;33.89;43.59;;
72686;Laerm;61365;52.162;4.500;2023-06-26T04:55:10;40.01;33.02;44.35;;
72686;Laerm;61365;52.162;4.500;2023-06-26T04:57:36;39.99;33.93;43.32;;
72686;Laerm;61365;52.162;4.500;2023-06-26T05:00:03;40.09;34.29;43.27;;
72686;Laerm;61365;52.162;4.500;2023-06-26T05:02:35;40.12;33.35;43.61;;
72686;Laerm;61365;52.162;4.500;2023-06-26T05:05:02;40.10;32.93;46.25;;
72686;Laerm;61365;52.162;4.500;2023-06-26T05:07:28;40.12;33.61;43.79;;
72686;Laerm;61365;52.162;4.500;2023-06-26T05:09:54;40.13;33.45;43.30;;
72686;Laerm;61365;52.162;4.500;2023-06-26T05:12:21;40.17;33.83;44.14;;
72686;Laerm;61365;52.162;4.500;2023-06-26T05:14:47;40.12;34.02;43.60;;
72686;Laerm;61365;52.162;4.500;2023-06-26T05:17:14;40.12;34.62;44.06;;
72686;Laerm;61365;52.162;4.500;2023-06-26T05:19:40;40.13;32.46;43.87;;
72686;Laerm;61365;52.162;4.500;2023-06-26T05:22:07;40.11;34.44;43.55;;
72686;Laerm;61365;52.162;4.500;2023-06-26T05:24:38;40.11;33.67;44.35;;
72686;Laerm;61365;52.162;4.500;2023-06-26T05:27:05;40.15;34.17;43.55;;
72686;Laerm;61365;52.162;4.500;2023-06-26T05:29:32;40.16;33.14;44.87;;
72686;Laerm;61365;52.162;4.500;2023-06-26T05:31:59;40.13;33.39;45.40;;
72686;Laerm;61365;52.162;4.500;2023-06-26T05:34:26;40.10;33.61;43.98;;
72686;Laerm;61365;52.162;4.500;2023-06-26T05:36:58;40.11;33.73;43.20;;
72686;Laerm;61365;52.162;4.500;2023-06-26T05:39:25;40.01;33.16;43.89;;
72686;Laerm;61365;52.162;4.500;2023-06-26T05:41:51;40.05;34.20;46.61;;
72686;Laerm;61365;52.162;4.500;2023-06-26T05:44:18;40.00;34.05;45.52;;
72686;Laerm;61365;52.162;4.500;2023-06-26T05:46:45;40.04;33.76;43.84;;
72686;Laerm;61365;52.162;4.500;2023-06-26T05:49:12;40.08;33.34;43.08;;
72686;Laerm;61365;52.162;4.500;2023-06-26T05:51:38;40.07;32.75;44.97;;
72686;Laerm;61365;52.162;4.500;2023-06-26T05:54:05;40.10;32.69;43.69;;
72686;Laerm;61365;52.162;4.500;2023-06-26T05:56:32;40.12;33.21;44.19;;
72686;Laerm;61365;52.162;4.500;2023-06-26T05:58:59;40.22;33.25;44.58;;
72686;Laerm;61365;52.162;4.500;2023-06-26T06:01:26;40.20;34.33;45.61;;
72686;Laerm;61365;52.162;4.500;2023-06-26T06:03:52;40.20;34.67;45.18;;
72686;Laerm;61365;52.162;4.500;2023-06-26T06:06:18;40.18;33.03;44.62;;
72686;Laerm;61365;52.162;4.500;2023-06-26T06:08:45;40.07;33.64;43.24;;
72686;Laerm;61365;52.162;4.500;2023-06-26T06:11:11;40.12;33.26;43.43;;
72686;Laerm;61365;52.162;4.500;2023-06-26T06:13:37;40.10;33.84;43.90;;
72686;Laerm;61365;52.162;4.500;2023-06-26T06:16:03;40.08;34.19;42.82;;
72686;Laerm;61365;52.162;4.500;2023-06-26T06:18:29;40.15;33.38;43.04;;
72686;Laerm;61365;52.162;4.500;2023-06-26T06:20:56;40.16;33.54;43.45;;
72686;Laerm;61365;52.162;4.500;2023-06-26T06:23:22;40.22;33.88;46.10;;
72686;Laerm;61365;52.162;4.500;2023-06-26T06:25:49;40.16;34.26;43.81;;
72686;Laerm;61365;52.162;4.500;2023-06-26T06:28:15;40.12;32.77;43.59;;
72686;Laerm;61365;52.162;4.500;2023-06-26T06:30:42;40.12;33.64;46.21;;
72686;Laerm;61365;52.162;4.500;2023-06-26T06:33:08;40.12;33.03;43.15;;
72686;Laerm;61365;52.162;4.500;2023-06-26T06:35:34;40.16;33.62;48.84;;
72686;Laerm;61365;52.162;4.500;2023-06-26T06:38:01;40.09;33.51;44.22;;
72686;Laerm;61365;52.162;4.500;2023-06-26T06:40:27;40.08;34.35;43.57;;
72686;Laerm;61365;52.162;4.500;2023-06-26T06:42:53;40.10;33.84;43.99;;
72686;Laerm;61365;52.162;4.500;2023-06-26T06:45:20;40.09;33.56;42.54;;
72686;Laerm;61365;52.162;4.500;2023-06-26T06:47:46;40.11;34.02;44.11;;
72686;Laerm;61365;52.162;4.500;2023-06-26T06:50:12;40.10;33.03;43.35;;
72686;Laerm;61365;52.162;4.500;2023-06-26T06:52:40;39.98;33.93;43.06;;
72686;Laerm;61365;52.162;4.500;2023-06-26T06:55:07;39.99;33.91;43.93;;
72686;Laerm;61365;52.162;4.500;2023-06-26T06:57:38;39.95;33.40;44.49;;
72686;Laerm;61365;52.162;4.500;2023-06-26T07:00:07;39.95;33.20;44.49;;
72686;Laerm;61365;52.162;4.500;2023-06-26T07:02:38;40.00;34.35;45.17;;
72686;Laerm;61365;52.162;4.500;2023-06-26T07:05:05;39.86;33.49;43.14;;
72686;Laerm;61365;52.162;4.500;2023-06-26T07:07:32;39.99;32.86;43.36;;
72686;Laerm;61365;52.162;4.500;2023-06-26T07:10:10;39.99;33.17;44.21;;
72686;Laerm;61365;52.162;4.500;2023-06-26T07:12:37;40.02;33.58;44.81;;
72686;Laerm;61365;52.162;4.500;2023-06-26T07:15:04;40.07;34.52;46.33;;
72686;Laerm;61365;52.162;4.500;2023-06-26T07:17:32;40.02;34.45;43.11;;
72686;Laerm;61365;52.162;4.500;2023-06-26T07:19:59;40.03;34.42;43.60;;
72686;Laerm;61365;52.162;4.500;2023-06-26T07:22:26;39.98;33.73;43.01;;
72686;Laerm;61365;52.162;4.500;2023-06-26T07:24:52;40.04;34.35;44.38;;
72686;Laerm;61365;52.162;4.500;2023-06-26T07:27:20;39.96;34.59;43.99;;
72686;Laerm;61365;52.162;4.500;2023-06-26T07:29:46;39.99;33.15;46.10;;
72686;Laerm;61365;52.162;4.500;2023-06-26T07:32:12;40.03;33.53;42.85;;
72686;Laerm;61365;52.162;4.500;2023-06-26T07:34:38;39.98;33.33;43.63;;
72686;Laerm;61365;52.162;4.500;2023-06-26T07:37:04;39.99;33.11;43.09;;
72686;Laerm;61365;52.162;4.500;2023-06-26T07:39:31;40.05;33.63;43.97;;
72686;Laerm;61365;52.162;4.500;2023-06-26T07:41:57;40.07;35.18;44.64;;
72686;Laerm;61365;52.162;4.500;2023-06-26T07:44:25;40.05;34.31;44.21;;
72686;Laerm;61365;52.162;4.500;2023-06-26T07:46:51;40.02;32.88;44.62;;
72686;Laerm;61365;52.162;4.500;2023-06-26T07:49:17;40.07;33.73;44.93;;
72686;Laerm;61365;52.162;4.500;2023-06-26T07:51:44;40.04;33.14;44.20;;
72686;Laerm;61365;52.162;4.500;2023-06-26T07:54:10;40.03;33.63;44.40;;
72686;Laerm;61365;52.162;4.500;2023-06-26T07:56:53;40.14;34.87;44.13;;
72686;Laerm;61365;52.162;4.500;2023-06-26T07:59:20;40.11;33.43;43.68;;
72686;Laerm;61365;52.162;4.500;2023-06-26T08:01:48;40.11;33.39;44.53;;
72686;Laerm;61365;52.162;4.500;2023-06-26T08:04:14;40.14;33.76;43.24;;
72686;Laerm;61365;52.162;4.500;2023-06-26T08:06:40;40.09;33.47;43.88;;
72686;Laerm;61365;52.162;4.500;2023-06-26T08:09:07;40.12;33.96;44.29;;
72686;Laerm;61365;52.162;4.500;2023-06-26T08:11:36;40.10;32.74;44.57;;
72686;Laerm;61365;52.162;4.500;2023-06-26T08:14:02;40.10;33.49;43.41;;
72686;Laerm;61365;52.162;4.500;2023-06-26T08:16:28;40.08;33.25;43.60;;
72686;Laerm;61365;52.162;4.500;2023-06-26T08:18:54;40.03;33.21;45.27;;
72686;Laerm;61365;52.162;4.500;2023-06-26T08:21:20;40.08;33.54;43.93;;
72686;Laerm;61365;52.162;4.500;2023-06-26T08:23:46;40.20;33.19;45.26;;
72686;Laerm;61365;52.162;4.500;2023-06-26T08:26:13;40.17;33.54;44.01;;
72686;Laerm;61365;52.162;4.500;2023-06-26T08:28:39;40.13;32.90;43.80;;
72686;Laerm;61365;52.162;4.500;2023-06-26T08:31:05;40.11;34.01;43.10;;
72686;Laerm;61365;52.162;4.500;2023-06-26T08:33:31;40.09;33.21;43.90;;
72686;Laerm;61365;52.162;4.500;2023-06-26T08:35:58;40.12;32.55;49.66;;
72686;Laerm;61365;52.162;4.500;2023-06-26T08:38:24;40.04;33.15;43.51;;
72686;Laerm;61365;52.162;4.500;2023-06-26T08:40:50;40.02;33.18;43.96;;
72686;Laerm;61365;52.162;4.500;2023-06-26T08:43:16;40.06;34.30;45.26;;
72686;Laerm;61365;52.162;4.500;2023-06-26T08:45:43;40.00;33.02;43.93;;
72686;Laerm;61365;52.162;4.500;2023-06-26T08:48:09;40.07;33.22;43.05;;
72686;Laerm;61365;52.162;4.500;2023-06-26T08:50:38;40.04;33.45;44.86;;
72686;Laerm;61365;52.162;4.500;2023-06-26T08:53:23;40.10;33.28;43.17;;
72686;Laerm;61365;52.162;4.500;2023-06-26T08:55:53;40.12;33.35;43.66;;
72686;Laerm;61365;52.162;4.500;2023-06-26T08:58:19;40.08;33.06;43.94;;
72686;Laerm;61365;52.162;4.500;2023-06-26T09:00:46;40.12;33.98;43.92;;
72686;Laerm;61365;52.162;4.500;2023-06-26T09:03:12;40.04;33.33;44.03;;
72686;Laerm;61365;52.162;4.500;2023-06-26T09:05:39;40.04;33.47;44.06;;
72686;Laerm;61365;52.162;4.500;2023-06-26T09:08:06;40.10;32.90;45.15;;
72686;Laerm;61365;52.162;4.500;2023-06-26T09:10:32;40.10;33.20;42.61;;
72686;Laerm;61365;52.162;4.500;2023-06-26T09:12:58;40.10;33.08;44.04;;
72686;Laerm;61365;52.162;4.500;2023-06-26T09:15:27;40.04;33.41;43.88;;
72686;Laerm;61365;52.162;4.500;2023-06-26T09:17:56;39.98;34.45;42.95;;
72686;Laerm;61365;52.162;4.500;2023-06-26T09:20:27;40.05;33.67;43.78;;
72686;Laerm;61365;52.162;4.500;2023-06-26T09:22:54;40.06;34.21;44.18;;
72686;Laerm;61365;52.162;4.500;2023-06-26T09:25:21;40.05;33.23;44.29;;
72686;Laerm;61365;52.162;4.500;2023-06-26T09:27:49;40.10;32.78;43.45;;
72686;Laerm;61365;52.162;4.500;2023-06-26T09:30:17;40.16;33.15;44.43;;
72686;Laerm;61365;52.162;4.500;2023-06-26T09:32:44;40.08;33.62;45.55;;
72686;Laerm;61365;52.162;4.500;2023-06-26T09:35:10;40.11;33.69;43.66;;
72686;Laerm;61365;52.162;4.500;2023-06-26T09:37:37;40.10;33.08;43.13;;
72686;Laerm;61365;52.162;4.500;2023-06-26T09:40:03;40.07;32.81;44.32;;
72686;Laerm;61365;52.162;4.500;2023-06-26T09:42:30;40.14;33.26;44.23;;
72686;Laerm;61365;52.162;4.500;2023-06-26T09:44:57;40.08;32.74;43.62;;
72686;Laerm;61365;52.162;4.500;2023-06-26T09:47:24;40.06;33.11;43.42;;
72686;Laerm;61365;52.162;4.500;2023-06-26T09:49:50;40.03;32.95;44.00;;
72686;Laerm;61365;52.162;4.500;2023-06-26T09:52:18;40.19;34.25;43.42;;
72686;Laerm;61365;52.162;4.500;2023-06-26T09:54:46;40.22;33.27;44.01;;
72686;Laerm;61365;52.162;4.500;2023-06-26T09:57:13;40.01;32.42;43.25;;
72686;Laerm;61365;52.162;4.500;2023-06-26T09:59:41;40.03;33.36;50.01;;
72686;Laerm;61365;52.162;4.500;2023-06-26T10:02:08;40.04;32.68;43.00;;
72686;Laerm;61365;52.162;4.500;2023-06-26T10:04:35;40.00;32.89;44.82;;
72686;Laerm;61365;52.162;4.500;2023-06-26T10:07:05;40.05;34.40;45.72;;
72686;Laerm;61365;52.162;4.500;2023-06-26T10:09:32;39.99;32.92;43.45;;
72686;Laerm;61365;52.162;4.500;2023-06-26T10:12:03;40.08;34.35;42.97;;
72686;Laerm;61365;52.162;4.500;2023-06-26T10:14:35;40.13;33.11;42.93;;
72686;Laerm;61365;52.162;4.500;2023-06-26T10:17:03;39.98;32.64;44.40;;
72686;Laerm;61365;52.162;4.500;2023-06-26T10:19:33;40.23;33.38;43.73;;
72686;Laerm;61365;52.162;4.500;2023-06-26T10:22:00;40.19;33.44;44.31;;
72686;Laerm;61365;52.162;4.500;2023-06-26T10:24:29;40.15;33.48;42.95;;
72686;Laerm;61365;52.162;4.500;2023-06-26T10:27:03;40.11;33.29;43.84;;
72686;Laerm;61365;52.162;4.500;2023-06-26T10:29:30;40.16;33.30;44.01;;
72686;Laerm;61365;52.162;4.500;2023-06-26T10:32:00;40.20;33.04;44.94;;
72686;Laerm;61365;52.162;4.500;2023-06-26T10:34:28;40.24;33.60;44.34;;
72686;Laerm;61365;52.162;4.500;2023-06-26T10:37:01;40.27;32.77;44.32;;
72686;Laerm;61365;52.162;4.500;2023-06-26T10:39:48;40.21;32.80;43.34;;
72686;Laerm;61365;52.162;4.500;2023-06-26T10:42:34;40.10;33.12;43.85;;
72686;Laerm;61365;52.162;4.500;2023-06-26T10:45:13;40.05;34.30;42.63;;
72686;Laerm;61365;52.162;4.500;2023-06-26T10:47:40;40.24;32.51;43.12;;
72686;Laerm;61365;52.162;4.500;2023-06-26T10:50:27;40.25;33.17;44.24;;
72686;Laerm;61365;52.162;4.500;2023-06-26T11:03:45;40.10;33.49;43.23;;
72686;Laerm;61365;52.162;4.500;2023-06-26T11:06:13;40.16;32.73;44.40;;
72686;Laerm;61365;52.162;4.500;2023-06-26T11:08:48;40.02;33.13;43.75;;
72686;Laerm;61365;52.162;4.500;2023-06-26T11:11:15;40.08;32.36;43.90;;
72686;Laerm;61365;52.162;4.500;2023-06-26T11:13:44;40.04;34.41;44.62;;
72686;Laerm;61365;52.162;4.500;2023-06-26T11:16:12;40.12;33.45;43.59;;
72686;Laerm;61365;52.162;4.500;2023-06-26T11:18:39;40.05;32.53;43.70;;
72686;Laerm;61365;52.162;4.500;2023-06-26T11:21:09;40.14;34.00;44.83;;
72686;Laerm;61365;52.162;4.500;2023-06-26T11:23:37;40.14;33.57;43.29;;
72686;Laerm;61365;52.162;4.500;2023-06-26T11:26:20;40.25;33.31;43.82;;
72686;Laerm;61365;52.162;4.500;2023-06-26T11:28:51;40.25;33.14;43.77;;
72686;Laerm;61365;52.162;4.500;2023-06-26T11:31:31;40.22;32.93;43.86;;
72686;Laerm;61365;52.162;4.500;2023-06-26T11:34:00;40.20;32.96;42.59;;
72686;Laerm;61365;52.162;4.500;2023-06-26T11:36:28;40.04;32.85;44.14;;
72686;Laerm;61365;52.162;4.500;2023-06-26T11:38:55;40.03;33.68;43.85;;
72686;Laerm;61365;52.162;4.500;2023-06-26T11:41:23;39.98;32.85;43.25;;
72686;Laerm;61365;52.162;4.500;2023-06-26T11:43:51;40.27;33.35;44.95;;
72686;Laerm;61365;52.162;4.500;2023-06-26T11:46:19;40.14;33.26;43.64;;
72686;Laerm;61365;52.162;4.500;2023-06-26T11:48:46;40.23;33.57;44.51;;
72686;Laerm;61365;52.162;4.500;2023-06-26T11:51:13;40.27;33.20;43.88;;
72686;Laerm;61365;52.162;4.500;2023-06-26T11:53:41;40.27;33.32;44.02;;
72686;Laerm;61365;52.162;4.500;2023-06-26T11:56:12;40.20;33.24;43.44;;
72686;Laerm;61365;52.162;4.500;2023-06-26T11:59:06;40.26;33.39;44.69;;
72686;Laerm;61365;52.162;4.500;2023-06-26T12:01:43;40.33;32.07;43.50;;
72686;Laerm;61365;52.162;4.500;2023-06-26T12:04:16;40.29;33.22;45.82;;
72686;Laerm;61365;52.162;4.500;2023-06-26T12:06:46;40.32;32.69;43.24;;
72686;Laerm;61365;52.162;4.500;2023-06-26T12:09:14;40.36;33.10;43.80;;
72686;Laerm;61365;52.162;4.500;2023-06-26T12:11:41;40.35;32.82;44.81;;
72686;Laerm;61365;52.162;4.500;2023-06-26T12:14:08;40.22;32.65;43.42;;
72686;Laerm;61365;52.162;4.500;2023-06-26T12:16:36;40.27;33.08;44.96;;
72686;Laerm;61365;52.162;4.500;2023-06-26T12:19:04;40.21;32.87;44.21;;
72686;Laerm;61365;52.162;4.500;2023-06-26T12:24:16;40.29;32.90;44.67;;
72686;Laerm;61365;52.162;4.500;2023-06-26T12:26:49;40.34;33.12;44.76;;
72686;Laerm;61365;52.162;4.500;2023-06-26T12:29:17;40.32;33.37;44.75;;
72686;Laerm;61365;52.162;4.500;2023-06-26T12:31:48;40.28;33.51;42.60;;
72686;Laerm;61365;52.162;4.500;2023-06-26T12:34:18;40.27;33.07;44.19;;
72686;Laerm;61365;52.162;4.500;2023-06-26T12:36:49;40.25;32.95;43.55;;
72686;Laerm;61365;52.162;4.500;2023-06-26T12:39:20;40.29;33.44;42.59;;
72686;Laerm;61365;52.162;4.500;2023-06-26T12:41:57;40.27;33.92;42.90;;
72686;Laerm;61365;52.162;4.500;2023-06-26T12:44:27;40.39;32.90;44.58;;
72686;Laerm;61365;52.162;4.500;2023-06-26T12:46:58;40.33;32.40;45.66;;
72686;Laerm;61365;52.162;4.500;2023-06-26T12:49:34;40.34;33.54;45.11;;
72686;Laerm;61365;52.162;4.500;2023-06-26T12:52:01;40.33;32.60;43.57;;
72686;Laerm;61365;52.162;4.500;2023-06-26T12:54:29;40.34;33.85;44.94;;
72686;Laerm;61365;52.162;4.500;2023-06-26T12:56:55;40.32;32.78;44.54;;
72686;Laerm;61365;52.162;4.500;2023-06-26T12:59:21;40.26;33.30;43.37;;
72686;Laerm;61365;52.162;4.500;2023-06-26T13:01:48;40.30;32.99;43.98;;
72686;Laerm;61365;52.162;4.500;2023-06-26T13:04:15;40.43;33.17;44.13;;
72686;Laerm;61365;52.162;4.500;2023-06-26T13:06:41;40.31;32.61;43.12;;
72686;Laerm;61365;52.162;4.500;2023-06-26T13:09:07;40.38;33.20;43.82;;
72686;Laerm;61365;52.162;4.500;2023-06-26T13:11:34;40.34;33.00;43.75;;
72686;Laerm;61365;52.162;4.500;2023-06-26T13:14:01;40.26;32.86;45.15;;
72686;Laerm;61365;52.162;4.500;2023-06-26T13:16:28;40.17;32.18;44.01;;
72686;Laerm;61365;52.162;4.500;2023-06-26T13:18:58;40.27;32.10;45.70;;
72686;Laerm;61365;52.162;4.500;2023-06-26T13:21:24;40.21;31.85;44.27;;
72686;Laerm;61365;52.162;4.500;2023-06-26T13:23:50;40.31;31.58;44.50;;
72686;Laerm;61365;52.162;4.500;2023-06-26T13:26:17;40.33;32.82;44.75;;
72686;Laerm;61365;52.162;4.500;2023-06-26T13:28:43;40.33;32.42;43.77;;
72686;Laerm;61365;52.162;4.500;2023-06-26T13:31:09;40.31;32.26;45.14;;
72686;Laerm;61365;52.162;4.500;2023-06-26T13:33:35;40.16;31.87;45.43;;
72686;Laerm;61365;52.162;4.500;2023-06-26T13:36:01;40.27;32.18;44.54;;
72686;Laerm;61365;52.162;4.500;2023-06-26T13:38:33;40.21;32.35;45.12;;
72686;Laerm;61365;52.162;4.500;2023-06-26T13:40:59;40.21;31.36;45.13;;
72686;Laerm;61365;52.162;4.500;2023-06-26T13:43:29;40.31;32.38;45.83;;
72686;Laerm;61365;52.162;4.500;2023-06-26T13:45:56;40.37;32.50;45.01;;
72686;Laerm;61365;52.162;4.500;2023-06-26T13:48:22;40.45;32.68;52.23;;
72686;Laerm;61365;52.162;4.500;2023-06-26T13:50:52;40.25;32.36;44.79;;
72686;Laerm;61365;52.162;4.500;2023-06-26T13:53:19;40.32;32.32;44.79;;
72686;Laerm;61365;52.162;4.500;2023-06-26T13:55:45;40.29;32.04;45.04;;
72686;Laerm;61365;52.162;4.500;2023-06-26T13:58:12;40.34;32.42;45.25;;
72686;Laerm;61365;52.162;4.500;2023-06-26T14:00:40;40.35;32.35;44.65;;